sensor_id;sensor_type;location;lat;lon;timestamp;P1;durP1;ratioP1;P2;durP2;ratioP2
66272;SDS011;58450;52.150;4.466;2023-01-09T00:01:17;7.57;;;1.30;;
66272;SDS011;58450;52.150;4.466;2023-01-09T00:03:48;4.63;;;1.25;;
66272;SDS011;58450;52.150;4.466;2023-01-09T00:06:16;4.00;;;1.20;;
66272;SDS011;58450;52.150;4.466;2023-01-09T00:08:43;5.57;;;1.02;;
66272;SDS011;58450;52.150;4.466;2023-01-09T00:11:11;5.13;;;1.35;;
66272;SDS011;58450;52.150;4.466;2023-01-09T00:13:40;8.55;;;1.55;;
66272;SDS011;58450;52.150;4.466;2023-01-09T00:16:07;5.07;;;1.17;;
66272;SDS011;58450;52.150;4.466;2023-01-09T00:18:35;8.27;;;1.50;;
66272;SDS011;58450;52.150;4.466;2023-01-09T00:21:04;4.93;;;1.38;;
66272;SDS011;58450;52.150;4.466;2023-01-09T00:23:34;7.07;;;1.63;;
66272;SDS011;58450;52.150;4.466;2023-01-09T00:26:02;5.43;;;1.30;;
66272;SDS011;58450;52.150;4.466;2023-01-09T00:28:32;4.78;;;1.60;;
66272;SDS011;58450;52.150;4.466;2023-01-09T00:31:02;7.60;;;1.50;;
66272;SDS011;58450;52.150;4.466;2023-01-09T00:33:33;8.85;;;1.83;;
66272;SDS011;58450;52.150;4.466;2023-01-09T00:36:02;5.28;;;1.17;;
66272;SDS011;58450;52.150;4.466;2023-01-09T00:38:30;5.40;;;1.33;;
66272;SDS011;58450;52.150;4.466;2023-01-09T00:40:59;8.32;;;1.60;;
66272;SDS011;58450;52.150;4.466;2023-01-09T00:43:29;4.70;;;1.40;;
66272;SDS011;58450;52.150;4.466;2023-01-09T00:46:04;3.53;;;1.50;;
66272;SDS011;58450;52.150;4.466;2023-01-09T00:48:33;6.88;;;1.35;;
66272;SDS011;58450;52.150;4.466;2023-01-09T00:51:05;7.95;;;1.80;;
66272;SDS011;58450;52.150;4.466;2023-01-09T00:53:35;5.25;;;1.30;;
66272;SDS011;58450;52.150;4.466;2023-01-09T00:56:09;5.82;;;1.38;;
66272;SDS011;58450;52.150;4.466;2023-01-09T00:58:41;4.57;;;1.40;;
66272;SDS011;58450;52.150;4.466;2023-01-09T01:01:11;8.05;;;1.52;;
66272;SDS011;58450;52.150;4.466;2023-01-09T01:03:39;5.38;;;1.40;;
66272;SDS011;58450;52.150;4.466;2023-01-09T01:06:06;5.55;;;1.50;;
66272;SDS011;58450;52.150;4.466;2023-01-09T01:08:52;7.43;;;1.80;;
66272;SDS011;58450;52.150;4.466;2023-01-09T01:11:20;4.88;;;1.40;;
66272;SDS011;58450;52.150;4.466;2023-01-09T01:13:49;4.85;;;1.67;;
66272;SDS011;58450;52.150;4.466;2023-01-09T01:16:18;7.28;;;1.52;;
66272;SDS011;58450;52.150;4.466;2023-01-09T01:18:46;8.38;;;1.90;;
66272;SDS011;58450;52.150;4.466;2023-01-09T01:21:13;4.32;;;1.60;;
66272;SDS011;58450;52.150;4.466;2023-01-09T01:23:41;7.57;;;1.80;;
66272;SDS011;58450;52.150;4.466;2023-01-09T01:26:10;6.18;;;1.70;;
66272;SDS011;58450;52.150;4.466;2023-01-09T01:28:41;9.68;;;1.85;;
66272;SDS011;58450;52.150;4.466;2023-01-09T01:31:14;7.25;;;1.85;;
66272;SDS011;58450;52.150;4.466;2023-01-09T01:33:45;6.68;;;1.90;;
66272;SDS011;58450;52.150;4.466;2023-01-09T01:36:12;5.10;;;1.90;;
66272;SDS011;58450;52.150;4.466;2023-01-09T01:38:42;6.18;;;1.77;;
66272;SDS011;58450;52.150;4.466;2023-01-09T01:41:11;7.93;;;2.10;;
66272;SDS011;58450;52.150;4.466;2023-01-09T01:43:48;3.58;;;1.90;;
66272;SDS011;58450;52.150;4.466;2023-01-09T01:46:19;9.52;;;2.42;;
66272;SDS011;58450;52.150;4.466;2023-01-09T01:48:49;6.55;;;2.10;;
66272;SDS011;58450;52.150;4.466;2023-01-09T01:51:25;6.45;;;2.10;;
66272;SDS011;58450;52.150;4.466;2023-01-09T01:53:58;7.25;;;2.55;;
66272;SDS011;58450;52.150;4.466;2023-01-09T01:56:34;5.38;;;2.25;;
66272;SDS011;58450;52.150;4.466;2023-01-09T01:59:06;7.05;;;2.20;;
66272;SDS011;58450;52.150;4.466;2023-01-09T02:01:41;7.55;;;2.22;;
66272;SDS011;58450;52.150;4.466;2023-01-09T02:04:15;8.38;;;2.50;;
66272;SDS011;58450;52.150;4.466;2023-01-09T02:06:43;6.43;;;2.15;;
66272;SDS011;58450;52.150;4.466;2023-01-09T02:09:16;6.07;;;2.40;;
66272;SDS011;58450;52.150;4.466;2023-01-09T02:11:48;6.60;;;2.80;;
66272;SDS011;58450;52.150;4.466;2023-01-09T02:14:18;5.90;;;2.65;;
66272;SDS011;58450;52.150;4.466;2023-01-09T02:16:51;6.75;;;2.50;;
66272;SDS011;58450;52.150;4.466;2023-01-09T02:19:47;8.57;;;2.70;;
66272;SDS011;58450;52.150;4.466;2023-01-09T02:23:10;8.73;;;2.90;;
66272;SDS011;58450;52.150;4.466;2023-01-09T02:26:15;10.45;;;3.03;;
66272;SDS011;58450;52.150;4.466;2023-01-09T02:29:31;5.93;;;2.80;;
66272;SDS011;58450;52.150;4.466;2023-01-09T02:32:39;6.85;;;2.47;;
66272;SDS011;58450;52.150;4.466;2023-01-09T02:35:28;7.03;;;2.13;;
66272;SDS011;58450;52.150;4.466;2023-01-09T02:38:14;7.78;;;2.88;;
66272;SDS011;58450;52.150;4.466;2023-01-09T02:40:55;10.10;;;2.75;;
66272;SDS011;58450;52.150;4.466;2023-01-09T02:43:32;8.18;;;2.60;;
66272;SDS011;58450;52.150;4.466;2023-01-09T02:45:59;7.15;;;2.60;;
66272;SDS011;58450;52.150;4.466;2023-01-09T02:48:28;7.40;;;2.35;;
66272;SDS011;58450;52.150;4.466;2023-01-09T02:51:00;8.70;;;2.72;;
66272;SDS011;58450;52.150;4.466;2023-01-09T02:53:43;9.05;;;3.00;;
66272;SDS011;58450;52.150;4.466;2023-01-09T02:56:34;10.52;;;2.80;;
66272;SDS011;58450;52.150;4.466;2023-01-09T02:59:26;7.63;;;2.55;;
66272;SDS011;58450;52.150;4.466;2023-01-09T03:02:15;5.47;;;2.30;;
66272;SDS011;58450;52.150;4.466;2023-01-09T03:05:06;8.95;;;2.50;;
66272;SDS011;58450;52.150;4.466;2023-01-09T03:07:44;8.80;;;2.65;;
66272;SDS011;58450;52.150;4.466;2023-01-09T03:10:26;9.75;;;3.08;;
66272;SDS011;58450;52.150;4.466;2023-01-09T03:13:01;9.95;;;2.85;;
66272;SDS011;58450;52.150;4.466;2023-01-09T03:15:32;8.05;;;2.50;;
66272;SDS011;58450;52.150;4.466;2023-01-09T03:18:05;7.65;;;2.35;;
66272;SDS011;58450;52.150;4.466;2023-01-09T03:20:40;6.75;;;2.40;;
66272;SDS011;58450;52.150;4.466;2023-01-09T03:23:09;6.68;;;2.40;;
66272;SDS011;58450;52.150;4.466;2023-01-09T03:25:37;6.03;;;2.13;;
66272;SDS011;58450;52.150;4.466;2023-01-09T03:28:05;6.32;;;2.33;;
66272;SDS011;58450;52.150;4.466;2023-01-09T03:30:35;7.13;;;2.63;;
66272;SDS011;58450;52.150;4.466;2023-01-09T03:33:02;10.15;;;2.60;;
66272;SDS011;58450;52.150;4.466;2023-01-09T03:35:30;12.13;;;2.80;;
66272;SDS011;58450;52.150;4.466;2023-01-09T03:37:59;9.50;;;2.60;;
66272;SDS011;58450;52.150;4.466;2023-01-09T03:40:26;7.47;;;2.47;;
66272;SDS011;58450;52.150;4.466;2023-01-09T03:42:54;7.38;;;2.17;;
66272;SDS011;58450;52.150;4.466;2023-01-09T03:45:21;9.63;;;2.55;;
66272;SDS011;58450;52.150;4.466;2023-01-09T03:47:49;8.40;;;2.83;;
66272;SDS011;58450;52.150;4.466;2023-01-09T03:50:16;8.18;;;2.90;;
66272;SDS011;58450;52.150;4.466;2023-01-09T03:52:44;6.53;;;2.72;;
66272;SDS011;58450;52.150;4.466;2023-01-09T03:55:13;6.93;;;2.33;;
66272;SDS011;58450;52.150;4.466;2023-01-09T03:57:40;5.53;;;2.20;;
66272;SDS011;58450;52.150;4.466;2023-01-09T04:00:08;9.98;;;2.20;;
66272;SDS011;58450;52.150;4.466;2023-01-09T04:02:37;9.23;;;2.20;;
66272;SDS011;58450;52.150;4.466;2023-01-09T04:05:05;8.05;;;2.35;;
66272;SDS011;58450;52.150;4.466;2023-01-09T04:07:33;10.07;;;2.45;;
66272;SDS011;58450;52.150;4.466;2023-01-09T04:10:01;9.15;;;2.88;;
66272;SDS011;58450;52.150;4.466;2023-01-09T04:12:31;6.10;;;2.20;;
66272;SDS011;58450;52.150;4.466;2023-01-09T04:14:58;8.50;;;2.60;;
66272;SDS011;58450;52.150;4.466;2023-01-09T04:17:26;9.40;;;2.58;;
66272;SDS011;58450;52.150;4.466;2023-01-09T04:19:53;8.88;;;2.85;;
66272;SDS011;58450;52.150;4.466;2023-01-09T04:22:21;7.07;;;2.40;;
66272;SDS011;58450;52.150;4.466;2023-01-09T04:24:48;6.68;;;2.50;;
66272;SDS011;58450;52.150;4.466;2023-01-09T04:27:16;6.75;;;2.60;;
66272;SDS011;58450;52.150;4.466;2023-01-09T04:29:44;5.68;;;2.22;;
66272;SDS011;58450;52.150;4.466;2023-01-09T04:32:12;6.68;;;2.70;;
66272;SDS011;58450;52.150;4.466;2023-01-09T04:34:40;6.95;;;2.95;;
66272;SDS011;58450;52.150;4.466;2023-01-09T04:37:07;7.22;;;2.60;;
66272;SDS011;58450;52.150;4.466;2023-01-09T04:39:35;6.00;;;2.35;;
66272;SDS011;58450;52.150;4.466;2023-01-09T04:42:03;7.05;;;2.70;;
66272;SDS011;58450;52.150;4.466;2023-01-09T04:44:30;6.25;;;2.40;;
66272;SDS011;58450;52.150;4.466;2023-01-09T04:46:59;7.35;;;2.50;;
66272;SDS011;58450;52.150;4.466;2023-01-09T04:49:27;6.63;;;2.38;;
66272;SDS011;58450;52.150;4.466;2023-01-09T04:51:54;7.03;;;2.28;;
66272;SDS011;58450;52.150;4.466;2023-01-09T04:54:22;7.13;;;2.17;;
66272;SDS011;58450;52.150;4.466;2023-01-09T04:56:50;7.60;;;2.42;;
66272;SDS011;58450;52.150;4.466;2023-01-09T04:59:17;6.28;;;1.90;;
66272;SDS011;58450;52.150;4.466;2023-01-09T05:01:45;9.48;;;2.50;;
66272;SDS011;58450;52.150;4.466;2023-01-09T05:04:13;5.95;;;2.10;;
66272;SDS011;58450;52.150;4.466;2023-01-09T05:06:41;5.85;;;2.30;;
66272;SDS011;58450;52.150;4.466;2023-01-09T05:09:08;5.05;;;2.15;;
66272;SDS011;58450;52.150;4.466;2023-01-09T05:11:36;8.52;;;2.25;;
66272;SDS011;58450;52.150;4.466;2023-01-09T05:14:03;7.57;;;2.15;;
66272;SDS011;58450;52.150;4.466;2023-01-09T05:16:31;4.80;;;2.38;;
66272;SDS011;58450;52.150;4.466;2023-01-09T05:18:58;7.05;;;2.75;;
66272;SDS011;58450;52.150;4.466;2023-01-09T05:21:27;9.48;;;3.20;;
66272;SDS011;58450;52.150;4.466;2023-01-09T05:23:55;8.23;;;2.58;;
66272;SDS011;58450;52.150;4.466;2023-01-09T05:26:22;8.02;;;2.45;;
66272;SDS011;58450;52.150;4.466;2023-01-09T05:28:50;5.75;;;2.50;;
66272;SDS011;58450;52.150;4.466;2023-01-09T05:31:17;6.63;;;2.30;;
66272;SDS011;58450;52.150;4.466;2023-01-09T05:33:46;7.20;;;2.60;;
66272;SDS011;58450;52.150;4.466;2023-01-09T05:36:14;7.35;;;2.58;;
66272;SDS011;58450;52.150;4.466;2023-01-09T05:38:43;7.57;;;2.67;;
66272;SDS011;58450;52.150;4.466;2023-01-09T05:41:10;5.68;;;2.60;;
66272;SDS011;58450;52.150;4.466;2023-01-09T05:43:38;7.03;;;2.80;;
66272;SDS011;58450;52.150;4.466;2023-01-09T05:46:05;8.38;;;2.92;;
66272;SDS011;58450;52.150;4.466;2023-01-09T05:48:33;5.85;;;2.53;;
66272;SDS011;58450;52.150;4.466;2023-01-09T05:51:01;8.18;;;3.03;;
66272;SDS011;58450;52.150;4.466;2023-01-09T05:53:30;8.30;;;3.08;;
66272;SDS011;58450;52.150;4.466;2023-01-09T05:55:59;9.27;;;3.20;;
66272;SDS011;58450;52.150;4.466;2023-01-09T05:58:26;8.07;;;3.55;;
66272;SDS011;58450;52.150;4.466;2023-01-09T06:00:53;7.75;;;3.58;;
66272;SDS011;58450;52.150;4.466;2023-01-09T06:03:21;10.77;;;3.95;;
66272;SDS011;58450;52.150;4.466;2023-01-09T06:05:48;7.03;;;3.50;;
66272;SDS011;58450;52.150;4.466;2023-01-09T06:08:16;6.15;;;3.47;;
66272;SDS011;58450;52.150;4.466;2023-01-09T06:10:44;8.15;;;4.18;;
66272;SDS011;58450;52.150;4.466;2023-01-09T06:13:14;7.72;;;3.80;;
66272;SDS011;58450;52.150;4.466;2023-01-09T06:15:41;7.57;;;3.90;;
66272;SDS011;58450;52.150;4.466;2023-01-09T06:18:09;10.15;;;3.40;;
66272;SDS011;58450;52.150;4.466;2023-01-09T06:20:36;6.40;;;3.60;;
66272;SDS011;58450;52.150;4.466;2023-01-09T06:23:04;10.25;;;3.78;;
66272;SDS011;58450;52.150;4.466;2023-01-09T06:25:31;8.88;;;3.40;;
66272;SDS011;58450;52.150;4.466;2023-01-09T06:27:59;7.93;;;4.00;;
66272;SDS011;58450;52.150;4.466;2023-01-09T06:30:27;9.75;;;4.05;;
66272;SDS011;58450;52.150;4.466;2023-01-09T06:32:55;7.97;;;3.60;;
66272;SDS011;58450;52.150;4.466;2023-01-09T06:35:22;7.68;;;3.80;;
66272;SDS011;58450;52.150;4.466;2023-01-09T06:37:50;8.65;;;3.67;;
66272;SDS011;58450;52.150;4.466;2023-01-09T06:40:18;7.85;;;3.60;;
66272;SDS011;58450;52.150;4.466;2023-01-09T06:42:46;9.38;;;3.50;;
66272;SDS011;58450;52.150;4.466;2023-01-09T06:45:14;9.88;;;4.03;;
66272;SDS011;58450;52.150;4.466;2023-01-09T06:47:44;7.70;;;3.72;;
66272;SDS011;58450;52.150;4.466;2023-01-09T06:50:11;11.70;;;4.38;;
66272;SDS011;58450;52.150;4.466;2023-01-09T06:52:39;9.25;;;4.20;;
66272;SDS011;58450;52.150;4.466;2023-01-09T06:55:07;13.18;;;4.40;;
66272;SDS011;58450;52.150;4.466;2023-01-09T06:57:35;8.73;;;4.00;;
66272;SDS011;58450;52.150;4.466;2023-01-09T07:00:03;8.32;;;3.60;;
66272;SDS011;58450;52.150;4.466;2023-01-09T07:02:32;12.05;;;4.32;;
66272;SDS011;58450;52.150;4.466;2023-01-09T07:05:00;6.38;;;3.33;;
66272;SDS011;58450;52.150;4.466;2023-01-09T07:07:28;7.82;;;3.38;;
66272;SDS011;58450;52.150;4.466;2023-01-09T07:09:56;10.50;;;3.30;;
66272;SDS011;58450;52.150;4.466;2023-01-09T07:12:23;9.75;;;3.30;;
66272;SDS011;58450;52.150;4.466;2023-01-09T07:14:51;9.55;;;3.10;;
66272;SDS011;58450;52.150;4.466;2023-01-09T07:17:18;10.00;;;2.70;;
66272;SDS011;58450;52.150;4.466;2023-01-09T07:19:45;10.43;;;2.55;;
66272;SDS011;58450;52.150;4.466;2023-01-09T07:22:16;7.95;;;1.83;;
66272;SDS011;58450;52.150;4.466;2023-01-09T07:24:44;6.28;;;1.40;;
66272;SDS011;58450;52.150;4.466;2023-01-09T07:27:12;5.82;;;1.13;;
66272;SDS011;58450;52.150;4.466;2023-01-09T07:29:39;8.65;;;1.20;;
66272;SDS011;58450;52.150;4.466;2023-01-09T07:32:07;7.93;;;1.45;;
66272;SDS011;58450;52.150;4.466;2023-01-09T07:34:34;6.57;;;1.27;;
66272;SDS011;58450;52.150;4.466;2023-01-09T07:37:02;8.48;;;1.10;;
66272;SDS011;58450;52.150;4.466;2023-01-09T07:39:31;10.80;;;1.35;;
66272;SDS011;58450;52.150;4.466;2023-01-09T07:41:58;6.50;;;1.42;;
66272;SDS011;58450;52.150;4.466;2023-01-09T07:44:25;6.20;;;0.95;;
66272;SDS011;58450;52.150;4.466;2023-01-09T07:46:53;7.13;;;1.15;;
66272;SDS011;58450;52.150;4.466;2023-01-09T07:49:21;4.93;;;1.30;;
66272;SDS011;58450;52.150;4.466;2023-01-09T07:51:48;3.22;;;0.93;;
66272;SDS011;58450;52.150;4.466;2023-01-09T07:54:15;4.10;;;0.95;;
66272;SDS011;58450;52.150;4.466;2023-01-09T07:56:44;4.30;;;0.82;;
66272;SDS011;58450;52.150;4.466;2023-01-09T07:59:12;4.15;;;1.00;;
66272;SDS011;58450;52.150;4.466;2023-01-09T08:01:39;4.93;;;1.10;;
66272;SDS011;58450;52.150;4.466;2023-01-09T08:04:07;5.63;;;1.30;;
66272;SDS011;58450;52.150;4.466;2023-01-09T08:06:34;7.10;;;1.20;;
66272;SDS011;58450;52.150;4.466;2023-01-09T08:09:02;12.30;;;1.75;;
66272;SDS011;58450;52.150;4.466;2023-01-09T08:11:29;6.57;;;1.45;;
66272;SDS011;58450;52.150;4.466;2023-01-09T08:13:59;9.38;;;1.77;;
66272;SDS011;58450;52.150;4.466;2023-01-09T08:16:26;6.68;;;1.35;;
66272;SDS011;58450;52.150;4.466;2023-01-09T08:18:54;14.60;;;2.15;;
66272;SDS011;58450;52.150;4.466;2023-01-09T08:21:22;9.40;;;1.92;;
66272;SDS011;58450;52.150;4.466;2023-01-09T08:23:49;11.52;;;1.88;;
66272;SDS011;58450;52.150;4.466;2023-01-09T08:26:17;12.77;;;2.20;;
66272;SDS011;58450;52.150;4.466;2023-01-09T08:28:45;10.23;;;1.67;;
66272;SDS011;58450;52.150;4.466;2023-01-09T08:31:14;10.43;;;1.63;;
66272;SDS011;58450;52.150;4.466;2023-01-09T08:33:42;15.10;;;2.17;;
66272;SDS011;58450;52.150;4.466;2023-01-09T08:36:10;11.63;;;2.08;;
66272;SDS011;58450;52.150;4.466;2023-01-09T08:38:37;18.20;;;2.25;;
66272;SDS011;58450;52.150;4.466;2023-01-09T08:41:05;17.27;;;2.30;;
66272;SDS011;58450;52.150;4.466;2023-01-09T08:43:46;14.43;;;2.63;;
66272;SDS011;58450;52.150;4.466;2023-01-09T08:46:47;15.30;;;2.13;;
66272;SDS011;58450;52.150;4.466;2023-01-09T08:49:34;20.23;;;3.03;;
66272;SDS011;58450;52.150;4.466;2023-01-09T08:52:03;17.33;;;2.63;;
66272;SDS011;58450;52.150;4.466;2023-01-09T08:54:32;14.70;;;2.90;;
66272;SDS011;58450;52.150;4.466;2023-01-09T08:57:01;16.23;;;2.40;;
66272;SDS011;58450;52.150;4.466;2023-01-09T08:59:29;14.65;;;2.97;;
66272;SDS011;58450;52.150;4.466;2023-01-09T09:01:57;12.60;;;2.15;;
66272;SDS011;58450;52.150;4.466;2023-01-09T09:04:25;14.48;;;2.35;;
66272;SDS011;58450;52.150;4.466;2023-01-09T09:06:52;16.08;;;2.50;;
66272;SDS011;58450;52.150;4.466;2023-01-09T09:09:20;20.02;;;2.78;;
66272;SDS011;58450;52.150;4.466;2023-01-09T09:11:47;15.80;;;2.33;;
66272;SDS011;58450;52.150;4.466;2023-01-09T09:14:15;16.98;;;2.67;;
66272;SDS011;58450;52.150;4.466;2023-01-09T09:17:01;13.65;;;2.42;;
66272;SDS011;58450;52.150;4.466;2023-01-09T09:19:28;16.42;;;2.35;;
66272;SDS011;58450;52.150;4.466;2023-01-09T09:21:56;18.23;;;2.80;;
66272;SDS011;58450;52.150;4.466;2023-01-09T09:24:24;14.43;;;2.35;;
66272;SDS011;58450;52.150;4.466;2023-01-09T09:26:51;10.18;;;2.20;;
66272;SDS011;58450;52.150;4.466;2023-01-09T09:29:18;15.10;;;2.70;;
66272;SDS011;58450;52.150;4.466;2023-01-09T09:31:46;16.23;;;2.72;;
66272;SDS011;58450;52.150;4.466;2023-01-09T09:34:15;13.98;;;2.60;;
66272;SDS011;58450;52.150;4.466;2023-01-09T09:36:43;17.92;;;2.90;;
66272;SDS011;58450;52.150;4.466;2023-01-09T09:39:11;10.95;;;2.10;;
66272;SDS011;58450;52.150;4.466;2023-01-09T09:41:56;13.15;;;2.55;;
66272;SDS011;58450;52.150;4.466;2023-01-09T09:45:13;12.55;;;2.33;;
66272;SDS011;58450;52.150;4.466;2023-01-09T09:47:57;10.25;;;1.77;;
66272;SDS011;58450;52.150;4.466;2023-01-09T09:54:08;13.18;;;2.08;;
66272;SDS011;58450;52.150;4.466;2023-01-09T09:56:41;7.65;;;1.85;;
66272;SDS011;58450;52.150;4.466;2023-01-09T09:59:16;14.73;;;2.33;;
66272;SDS011;58450;52.150;4.466;2023-01-09T10:01:49;14.88;;;2.28;;
66272;SDS011;58450;52.150;4.466;2023-01-09T10:04:23;9.68;;;1.88;;
66272;SDS011;58450;52.150;4.466;2023-01-09T10:06:59;11.65;;;2.25;;
66272;SDS011;58450;52.150;4.466;2023-01-09T10:09:37;10.75;;;2.30;;
66272;SDS011;58450;52.150;4.466;2023-01-09T10:12:18;14.02;;;2.35;;
66272;SDS011;58450;52.150;4.466;2023-01-09T10:14:54;11.15;;;1.75;;
66272;SDS011;58450;52.150;4.466;2023-01-09T10:17:37;11.73;;;2.40;;
66272;SDS011;58450;52.150;4.466;2023-01-09T10:20:34;10.45;;;2.22;;
66272;SDS011;58450;52.150;4.466;2023-01-09T10:23:24;12.32;;;2.20;;
66272;SDS011;58450;52.150;4.466;2023-01-09T10:26:15;13.27;;;2.15;;
66272;SDS011;58450;52.150;4.466;2023-01-09T10:32:16;11.52;;;2.10;;
66272;SDS011;58450;52.150;4.466;2023-01-09T10:35:01;12.82;;;2.45;;
66272;SDS011;58450;52.150;4.466;2023-01-09T10:37:55;10.20;;;2.40;;
66272;SDS011;58450;52.150;4.466;2023-01-09T10:40:28;9.60;;;2.08;;
66272;SDS011;58450;52.150;4.466;2023-01-09T10:43:03;14.15;;;2.45;;
66272;SDS011;58450;52.150;4.466;2023-01-09T10:45:40;18.83;;;2.67;;
66272;SDS011;58450;52.150;4.466;2023-01-09T10:48:18;12.23;;;2.33;;
66272;SDS011;58450;52.150;4.466;2023-01-09T10:50:54;12.18;;;2.60;;
66272;SDS011;58450;52.150;4.466;2023-01-09T10:53:26;10.07;;;1.90;;
66272;SDS011;58450;52.150;4.466;2023-01-09T10:56:03;13.27;;;3.05;;
66272;SDS011;58450;52.150;4.466;2023-01-09T10:58:44;16.00;;;2.67;;
66272;SDS011;58450;52.150;4.466;2023-01-09T11:01:13;12.68;;;2.50;;
66272;SDS011;58450;52.150;4.466;2023-01-09T11:03:40;8.75;;;2.47;;
66272;SDS011;58450;52.150;4.466;2023-01-09T11:06:13;12.85;;;2.47;;
66272;SDS011;58450;52.150;4.466;2023-01-09T11:08:48;14.13;;;2.53;;
66272;SDS011;58450;52.150;4.466;2023-01-09T11:11:33;10.35;;;2.25;;
66272;SDS011;58450;52.150;4.466;2023-01-09T11:14:02;15.00;;;2.65;;
66272;SDS011;58450;52.150;4.466;2023-01-09T11:16:40;16.92;;;3.22;;
66272;SDS011;58450;52.150;4.466;2023-01-09T11:19:18;13.35;;;2.63;;
66272;SDS011;58450;52.150;4.466;2023-01-09T11:21:46;22.90;;;2.63;;
66272;SDS011;58450;52.150;4.466;2023-01-09T11:24:23;8.98;;;2.00;;
66272;SDS011;58450;52.150;4.466;2023-01-09T11:30:06;12.43;;;2.20;;
66272;SDS011;58450;52.150;4.466;2023-01-09T11:32:51;18.85;;;2.90;;
66272;SDS011;58450;52.150;4.466;2023-01-09T11:35:21;11.75;;;2.05;;
66272;SDS011;58450;52.150;4.466;2023-01-09T11:37:56;14.13;;;2.72;;
66272;SDS011;58450;52.150;4.466;2023-01-09T11:40:35;12.18;;;2.35;;
66272;SDS011;58450;52.150;4.466;2023-01-09T11:43:17;13.88;;;2.63;;
66272;SDS011;58450;52.150;4.466;2023-01-09T11:45:55;11.68;;;2.58;;
66272;SDS011;58450;52.150;4.466;2023-01-09T11:48:30;11.63;;;2.28;;
66272;SDS011;58450;52.150;4.466;2023-01-09T11:51:03;11.93;;;2.17;;
66272;SDS011;58450;52.150;4.466;2023-01-09T11:53:51;15.38;;;2.60;;
66272;SDS011;58450;52.150;4.466;2023-01-09T11:56:28;9.50;;;2.05;;
66272;SDS011;58450;52.150;4.466;2023-01-09T11:58:58;11.65;;;2.42;;
66272;SDS011;58450;52.150;4.466;2023-01-09T12:01:33;10.98;;;1.88;;
66272;SDS011;58450;52.150;4.466;2023-01-09T12:04:20;13.18;;;2.33;;
66272;SDS011;58450;52.150;4.466;2023-01-09T12:07:01;12.07;;;2.35;;
66272;SDS011;58450;52.150;4.466;2023-01-09T12:09:59;14.73;;;2.25;;
66272;SDS011;58450;52.150;4.466;2023-01-09T12:12:39;13.35;;;2.53;;
66272;SDS011;58450;52.150;4.466;2023-01-09T12:15:26;13.85;;;2.28;;
66272;SDS011;58450;52.150;4.466;2023-01-09T12:18:08;9.18;;;2.10;;
66272;SDS011;58450;52.150;4.466;2023-01-09T12:20:54;13.00;;;2.10;;
66272;SDS011;58450;52.150;4.466;2023-01-09T12:23:44;15.30;;;2.92;;
66272;SDS011;58450;52.150;4.466;2023-01-09T12:26:30;12.05;;;2.47;;
66272;SDS011;58450;52.150;4.466;2023-01-09T12:32:07;15.10;;;2.70;;
66272;SDS011;58450;52.150;4.466;2023-01-09T12:35:01;12.40;;;2.47;;
66272;SDS011;58450;52.150;4.466;2023-01-09T12:37:47;8.48;;;2.08;;
66272;SDS011;58450;52.150;4.466;2023-01-09T12:43:38;12.68;;;2.40;;
66272;SDS011;58450;52.150;4.466;2023-01-09T12:46:26;12.45;;;2.13;;
66272;SDS011;58450;52.150;4.466;2023-01-09T12:51:59;7.32;;;1.90;;
66272;SDS011;58450;52.150;4.466;2023-01-09T12:54:37;10.60;;;2.05;;
66272;SDS011;58450;52.150;4.466;2023-01-09T12:57:13;12.68;;;2.03;;
66272;SDS011;58450;52.150;4.466;2023-01-09T12:59:49;9.40;;;1.92;;
66272;SDS011;58450;52.150;4.466;2023-01-09T13:02:23;11.90;;;2.35;;
66272;SDS011;58450;52.150;4.466;2023-01-09T13:05:00;12.18;;;2.10;;
66272;SDS011;58450;52.150;4.466;2023-01-09T13:07:37;11.35;;;2.40;;
66272;SDS011;58450;52.150;4.466;2023-01-09T13:10:13;11.57;;;1.88;;
66272;SDS011;58450;52.150;4.466;2023-01-09T13:12:48;10.32;;;2.20;;
66272;SDS011;58450;52.150;4.466;2023-01-09T13:15:23;12.05;;;2.47;;
66272;SDS011;58450;52.150;4.466;2023-01-09T13:17:59;14.32;;;1.98;;
66272;SDS011;58450;52.150;4.466;2023-01-09T13:20:35;16.60;;;2.63;;
66272;SDS011;58450;52.150;4.466;2023-01-09T13:23:11;8.80;;;2.45;;
66272;SDS011;58450;52.150;4.466;2023-01-09T13:25:51;17.02;;;2.70;;
66272;SDS011;58450;52.150;4.466;2023-01-09T13:28:22;12.38;;;2.47;;
66272;SDS011;58450;52.150;4.466;2023-01-09T13:34:23;15.02;;;2.58;;
66272;SDS011;58450;52.150;4.466;2023-01-09T13:36:56;9.98;;;2.00;;
66272;SDS011;58450;52.150;4.466;2023-01-09T13:39:25;8.93;;;1.90;;
66272;SDS011;58450;52.150;4.466;2023-01-09T13:41:57;10.60;;;2.33;;
66272;SDS011;58450;52.150;4.466;2023-01-09T13:44:45;10.43;;;2.13;;
66272;SDS011;58450;52.150;4.466;2023-01-09T13:47:19;11.73;;;2.25;;
66272;SDS011;58450;52.150;4.466;2023-01-09T13:50:01;11.38;;;2.35;;
66272;SDS011;58450;52.150;4.466;2023-01-09T13:52:50;11.32;;;1.92;;
66272;SDS011;58450;52.150;4.466;2023-01-09T13:55:22;9.70;;;2.33;;
66272;SDS011;58450;52.150;4.466;2023-01-09T13:58:16;8.10;;;1.83;;
66272;SDS011;58450;52.150;4.466;2023-01-09T14:07:20;9.50;;;2.05;;
66272;SDS011;58450;52.150;4.466;2023-01-09T14:09:57;12.35;;;1.90;;
66272;SDS011;58450;52.150;4.466;2023-01-09T14:12:28;10.23;;;1.80;;
66272;SDS011;58450;52.150;4.466;2023-01-09T14:15:05;9.32;;;1.70;;
66272;SDS011;58450;52.150;4.466;2023-01-09T14:17:56;11.32;;;2.20;;
66272;SDS011;58450;52.150;4.466;2023-01-09T14:20:27;10.85;;;2.20;;
66272;SDS011;58450;52.150;4.466;2023-01-09T14:23:03;11.82;;;2.42;;
66272;SDS011;58450;52.150;4.466;2023-01-09T14:25:33;11.68;;;2.00;;
66272;SDS011;58450;52.150;4.466;2023-01-09T14:28:05;11.77;;;2.08;;
66272;SDS011;58450;52.150;4.466;2023-01-09T14:36:53;9.00;;;1.50;;
66272;SDS011;58450;52.150;4.466;2023-01-09T14:42:00;11.32;;;1.98;;
66272;SDS011;58450;52.150;4.466;2023-01-09T14:44:43;9.00;;;1.73;;
66272;SDS011;58450;52.150;4.466;2023-01-09T14:47:18;9.77;;;2.08;;
66272;SDS011;58450;52.150;4.466;2023-01-09T14:49:55;10.23;;;1.90;;
66272;SDS011;58450;52.150;4.466;2023-01-09T14:52:30;8.50;;;1.60;;
66272;SDS011;58450;52.150;4.466;2023-01-09T14:55:04;13.30;;;2.15;;
66272;SDS011;58450;52.150;4.466;2023-01-09T14:57:45;8.98;;;2.00;;
66272;SDS011;58450;52.150;4.466;2023-01-09T15:00:17;10.38;;;1.60;;
66272;SDS011;58450;52.150;4.466;2023-01-09T15:02:45;9.70;;;1.88;;
66272;SDS011;58450;52.150;4.466;2023-01-09T15:05:14;12.73;;;2.28;;
66272;SDS011;58450;52.150;4.466;2023-01-09T15:07:48;9.82;;;2.13;;
66272;SDS011;58450;52.150;4.466;2023-01-09T15:10:21;8.77;;;1.67;;
66272;SDS011;58450;52.150;4.466;2023-01-09T15:12:56;9.90;;;1.63;;
66272;SDS011;58450;52.150;4.466;2023-01-09T15:15:28;9.50;;;1.88;;
66272;SDS011;58450;52.150;4.466;2023-01-09T15:17:56;11.15;;;1.67;;
66272;SDS011;58450;52.150;4.466;2023-01-09T15:20:28;10.23;;;1.80;;
66272;SDS011;58450;52.150;4.466;2023-01-09T15:22:58;11.57;;;1.65;;
66272;SDS011;58450;52.150;4.466;2023-01-09T15:25:29;10.57;;;1.73;;
66272;SDS011;58450;52.150;4.466;2023-01-09T15:28:01;8.93;;;1.77;;
66272;SDS011;58450;52.150;4.466;2023-01-09T15:30:58;6.63;;;1.70;;
66272;SDS011;58450;52.150;4.466;2023-01-09T15:33:32;9.90;;;1.80;;
66272;SDS011;58450;52.150;4.466;2023-01-09T15:36:01;6.90;;;1.80;;
66272;SDS011;58450;52.150;4.466;2023-01-09T15:38:39;10.55;;;1.75;;
66272;SDS011;58450;52.150;4.466;2023-01-09T15:41:09;9.15;;;1.67;;
66272;SDS011;58450;52.150;4.466;2023-01-09T15:44:06;9.07;;;1.42;;
66272;SDS011;58450;52.150;4.466;2023-01-09T15:46:42;8.00;;;2.03;;
66272;SDS011;58450;52.150;4.466;2023-01-09T15:49:14;9.27;;;1.70;;
66272;SDS011;58450;52.150;4.466;2023-01-09T15:51:44;8.85;;;1.75;;
66272;SDS011;58450;52.150;4.466;2023-01-09T15:54:14;7.72;;;2.05;;
66272;SDS011;58450;52.150;4.466;2023-01-09T15:56:49;8.32;;;1.73;;